createdAt,value
2023-05-01T00:02:39.560Z,84.48
2023-05-01T00:05:42.012Z,84.67
2023-05-01T00:08:44.263Z,83.44
2023-05-01T00:11:46.774Z,83.84
2023-05-01T00:14:49.113Z,83.57
2023-05-01T00:17:51.952Z,85.67
2023-05-01T00:20:54.254Z,86.31
2023-05-01T00:23:57.314Z,86.27
2023-05-01T00:26:59.828Z,85.99
2023-05-01T00:30:02.209Z,84.82
2023-05-01T00:33:04.960Z,85.71
2023-05-01T00:36:07.282Z,86.14
2023-05-01T00:39:09.950Z,86.69
2023-05-01T00:42:12.333Z,87.27
2023-05-01T00:45:15.439Z,87.21
2023-05-01T00:48:17.816Z,85.38
2023-05-01T00:51:21.257Z,86.97
2023-05-01T00:54:25.286Z,87.42
2023-05-01T00:57:27.726Z,88.17
2023-05-01T01:00:30.041Z,87.97
2023-05-01T01:03:32.377Z,88.17
2023-05-01T01:06:47.684Z,88.57
2023-05-01T01:10:05.427Z,88.77
2023-05-01T01:13:26.234Z,89.02
2023-05-01T01:16:41.766Z,89.15
2023-05-01T01:20:09.026Z,88.81
2023-05-01T01:23:30.539Z,88.06
2023-05-01T01:26:51.690Z,87.18
2023-05-01T01:30:31.676Z,87.58
2023-05-01T01:33:57.209Z,87.58
2023-05-01T01:37:05.017Z,86.25
2023-05-01T01:40:13.116Z,86.05
2023-05-01T01:43:18.931Z,85.70
2023-05-01T01:46:22.337Z,85.61
2023-05-01T01:49:27.823Z,85.00
2023-05-01T01:52:31.958Z,86.38
2023-05-01T01:55:36.905Z,86.49
2023-05-01T01:58:40.674Z,85.99
2023-05-01T02:01:44.762Z,85.07
2023-05-01T02:04:49.453Z,84.30
2023-05-01T02:07:53.141Z,85.96
2023-05-01T02:11:01.835Z,84.45
2023-05-01T02:14:06.994Z,85.35
2023-05-01T02:17:10.613Z,84.61
2023-05-01T02:20:14.041Z,86.75
2023-05-01T02:23:17.418Z,88.65
2023-05-01T02:26:24.882Z,88.35
2023-05-01T02:29:28.229Z,90.30
2023-05-01T02:32:32.045Z,90.85
2023-05-01T02:35:42.830Z,89.93
2023-05-01T02:38:47.305Z,89.21
2023-05-01T02:41:51.383Z,89.34
2023-05-01T02:45:05.596Z,90.01
2023-05-01T02:48:11.295Z,90.32
2023-05-01T02:51:14.215Z,86.52
2023-05-01T02:54:17.440Z,86.75
2023-05-01T02:57:20.566Z,86.99
2023-05-01T03:00:23.587Z,87.72
2023-05-01T03:03:27.855Z,88.03
2023-05-01T03:06:31.172Z,83.70
2023-05-01T03:09:33.719Z,85.89
2023-05-01T03:12:35.968Z,87.19
2023-05-01T03:15:38.772Z,88.04
2023-05-01T03:18:41.052Z,89.18
2023-05-01T03:21:43.326Z,90.01
2023-05-01T03:24:47.545Z,89.01
2023-05-01T03:27:50.117Z,91.44
2023-05-01T03:30:52.809Z,90.95
2023-05-01T03:33:55.908Z,90.37
2023-05-01T03:36:58.356Z,90.35
2023-05-01T03:40:02.665Z,90.77
2023-05-01T03:43:39.995Z,89.71
2023-05-01T03:46:49.018Z,90.30
2023-05-01T03:49:57.615Z,89.45
2023-05-01T03:53:00.172Z,87.82
2023-05-01T03:56:04.226Z,87.13
2023-05-01T03:59:07.375Z,87.01
2023-05-01T04:02:10.361Z,86.57
2023-05-01T04:05:13.425Z,86.61
2023-05-01T04:08:19.469Z,86.42
2023-05-01T04:11:21.805Z,85.31
2023-05-01T04:14:24.121Z,86.89
2023-05-01T04:17:26.557Z,87.17
2023-05-01T04:20:28.866Z,86.37
2023-05-01T04:23:31.414Z,88.15
2023-05-01T04:26:35.239Z,87.47
2023-05-01T04:29:37.760Z,86.91
2023-05-01T04:32:40.541Z,85.36
2023-05-01T04:35:43.048Z,80.45
2023-05-01T04:38:45.481Z,80.19
2023-05-01T04:41:48.527Z,81.71
2023-05-01T04:44:51.532Z,76.86
2023-05-01T04:47:55.759Z,76.48
2023-05-01T04:50:58.517Z,76.51
2023-05-01T04:54:04.842Z,74.85
2023-05-01T04:57:11.954Z,75.77
2023-05-01T05:00:15.009Z,75.07
2023-05-01T05:03:26.394Z,73.69
2023-05-01T05:06:28.962Z,68.93
2023-05-01T05:09:31.957Z,70.06
2023-05-01T05:12:34.272Z,61.88
2023-05-01T05:15:36.635Z,64.98
2023-05-01T05:18:39.918Z,65.42
2023-05-01T05:21:42.219Z,62.01
2023-05-01T05:24:45.126Z,62.93
2023-05-01T05:27:47.523Z,60.49
2023-05-01T05:30:49.963Z,57.20
2023-05-01T05:33:54.849Z,58.37
2023-05-01T05:36:58.776Z,58.63
2023-05-01T05:40:01.384Z,59.20
2023-05-01T05:43:07.386Z,57.58
2023-05-01T05:46:09.830Z,54.04
2023-05-01T05:49:13.289Z,47.90
2023-05-01T05:52:15.653Z,47.30
2023-05-01T05:55:18.582Z,50.01
2023-05-01T05:58:34.458Z,50.49
2023-05-01T06:01:37.874Z,44.63
2023-05-01T06:04:40.225Z,48.68
2023-05-01T06:07:43.613Z,45.87
2023-05-01T06:10:46.196Z,43.59
2023-05-01T06:13:49.081Z,43.17
2023-05-01T06:16:51.785Z,39.50
2023-05-01T06:19:54.203Z,42.97
2023-05-01T06:22:57.769Z,44.91
2023-05-01T06:26:12.887Z,40.50
2023-05-01T06:29:16.549Z,39.02
2023-05-01T06:32:19.402Z,40.61
2023-05-01T06:35:22.349Z,44.16
2023-05-01T06:38:27.075Z,46.89
2023-05-01T06:41:29.831Z,39.28
2023-05-01T06:44:32.955Z,38.77
2023-05-01T06:47:37.305Z,40.63
2023-05-01T06:50:39.797Z,39.97
2023-05-01T06:53:43.193Z,38.38
2023-05-01T06:56:45.544Z,39.57
2023-05-01T06:59:48.769Z,40.69
2023-05-01T07:02:51.060Z,39.72
2023-05-01T07:05:54.959Z,42.27
2023-05-01T07:08:57.216Z,43.83
2023-05-01T07:11:59.540Z,43.73
2023-05-01T07:15:01.857Z,43.96
2023-05-01T07:18:08.592Z,41.50
2023-05-01T07:21:12.021Z,37.65
2023-05-01T07:24:14.360Z,40.65
2023-05-01T07:27:16.648Z,44.54
2023-05-01T07:30:19.452Z,41.29
2023-05-01T07:33:21.847Z,40.25
2023-05-01T07:36:24.252Z,39.58
2023-05-01T07:39:26.859Z,36.83
2023-05-01T07:42:29.430Z,39.80
2023-05-01T07:45:32.112Z,37.57
2023-05-01T07:48:35.634Z,35.06
2023-05-01T07:51:39.179Z,37.39
2023-05-01T07:54:42.141Z,34.86
2023-05-01T07:57:44.406Z,36.12
2023-05-01T08:00:46.699Z,36.77
2023-05-01T08:03:50.930Z,36.62
2023-05-01T08:06:53.494Z,35.98
2023-05-01T08:09:57.791Z,33.53
2023-05-01T08:13:02.220Z,33.38
2023-05-01T08:16:05.213Z,30.38
2023-05-01T08:19:07.596Z,31.49
2023-05-01T08:22:10.346Z,31.23
2023-05-01T08:25:12.591Z,31.37
2023-05-01T08:28:15.118Z,29.73
2023-05-01T08:31:17.551Z,30.25
2023-05-01T08:34:20.058Z,28.18
2023-05-01T08:37:22.423Z,29.11
2023-05-01T08:40:26.399Z,30.29
2023-05-01T08:43:31.912Z,28.05
2023-05-01T08:46:47.622Z,24.69
2023-05-01T08:49:52.377Z,23.46
2023-05-01T08:52:58.580Z,22.62
2023-05-01T08:56:05.939Z,21.08
2023-05-01T08:59:10.069Z,21.29
2023-05-01T09:02:13.715Z,21.71
2023-05-01T09:05:17.765Z,21.33
2023-05-01T09:08:20.775Z,21.34
2023-05-01T09:11:24.225Z,24.27
2023-05-01T09:14:27.164Z,21.39
2023-05-01T09:17:32.356Z,21.59
2023-05-01T09:20:37.458Z,20.87
2023-05-01T09:23:40.927Z,19.19
2023-05-01T09:26:43.434Z,20.15
2023-05-01T09:29:47.567Z,21.30
2023-05-01T09:33:11.097Z,18.78
2023-05-01T09:36:17.680Z,20.35
2023-05-01T09:39:23.642Z,19.45
2023-05-01T09:42:25.983Z,19.49
2023-05-01T09:45:28.476Z,18.28
2023-05-01T09:48:33.388Z,18.08
2023-05-01T09:51:38.081Z,18.42
2023-05-01T09:54:40.370Z,19.40
2023-05-01T09:57:43.993Z,18.35
2023-05-01T10:00:49.829Z,17.59
2023-05-01T10:03:56.781Z,19.49
2023-05-01T10:07:14.729Z,17.75
2023-05-01T10:10:21.446Z,16.68
2023-05-01T10:13:23.743Z,19.66
2023-05-01T10:16:30.542Z,20.51
2023-05-01T10:19:33.112Z,21.33
2023-05-01T10:22:40.269Z,21.00
2023-05-01T10:25:44.211Z,20.65
2023-05-01T10:28:49.002Z,19.34
2023-05-01T10:31:51.432Z,16.71
2023-05-01T10:35:04.236Z,16.51
2023-05-01T10:38:23.447Z,19.62
2023-05-01T10:42:06.365Z,18.56
2023-05-01T10:45:45.622Z,17.11
2023-05-01T10:48:52.687Z,16.91
2023-05-01T10:52:03.737Z,18.14
2023-05-01T10:55:35.022Z,18.65
2023-05-01T10:58:37.762Z,17.55
2023-05-01T11:01:41.855Z,16.31
2023-05-01T11:04:44.153Z,18.65
2023-05-01T11:07:46.624Z,18.81
2023-05-01T11:10:48.967Z,17.28
2023-05-01T11:14:01.289Z,19.41
2023-05-01T11:17:03.589Z,18.63
2023-05-01T11:20:06.979Z,18.30
2023-05-01T11:23:17.884Z,19.76
2023-05-01T11:26:22.987Z,18.89
2023-05-01T11:29:30.945Z,18.14
2023-05-01T11:32:33.305Z,18.02
2023-05-01T11:35:36.394Z,20.12
2023-05-01T11:38:39.905Z,22.43
2023-05-01T11:41:42.246Z,20.71
2023-05-01T11:45:08.124Z,21.06
2023-05-01T11:48:16.598Z,18.76
2023-05-01T11:51:19.173Z,19.47
2023-05-01T11:54:21.500Z,17.73
2023-05-01T11:57:24.678Z,19.46
2023-05-01T12:00:33.869Z,19.78
2023-05-01T12:03:43.208Z,19.98
2023-05-01T12:06:47.101Z,19.68
2023-05-01T12:09:51.318Z,18.70
2023-05-01T12:12:53.608Z,17.83
2023-05-01T12:15:56.967Z,18.16
2023-05-01T12:18:59.548Z,17.50
2023-05-01T12:22:09.446Z,17.30
2023-05-01T12:25:11.751Z,17.21
2023-05-01T12:28:17.585Z,15.53
2023-05-01T12:31:20.921Z,16.96
2023-05-01T12:34:30.048Z,20.73
2023-05-01T12:37:32.886Z,19.96
2023-05-01T12:40:35.231Z,18.95
2023-05-01T12:43:38.282Z,18.58
2023-05-01T12:46:41.379Z,19.27
2023-05-01T12:49:43.803Z,18.49
2023-05-01T12:52:46.222Z,18.69
2023-05-01T12:55:50.290Z,19.80
2023-05-01T12:58:53.798Z,20.70
2023-05-01T13:02:29.501Z,21.78
2023-05-01T13:05:31.802Z,23.19
2023-05-01T13:08:38.420Z,23.52
2023-05-01T13:11:40.928Z,23.98
2023-05-01T13:14:43.582Z,25.22
2023-05-01T13:17:45.936Z,24.77
2023-05-01T13:20:48.288Z,26.56
2023-05-01T13:23:59.240Z,27.04
2023-05-01T13:27:05.062Z,27.35
2023-05-01T13:30:08.625Z,28.33
2023-05-01T13:33:11.275Z,26.39
2023-05-01T13:36:25.305Z,26.59
2023-05-01T13:39:29.303Z,27.39
2023-05-01T13:42:31.676Z,26.88
2023-05-01T13:45:33.956Z,26.80
2023-05-01T13:48:36.325Z,27.29
2023-05-01T13:51:42.900Z,28.16
2023-05-01T13:54:47.184Z,26.84
2023-05-01T13:57:49.594Z,26.97
2023-05-01T14:00:52.098Z,28.89
2023-05-01T14:04:00.303Z,28.27
2023-05-01T14:07:02.932Z,29.30
2023-05-01T14:10:08.932Z,31.14
2023-05-01T14:13:11.265Z,29.48
2023-05-01T14:16:27.813Z,28.86
2023-05-01T14:19:30.646Z,28.65
2023-05-01T14:22:43.328Z,27.66
2023-05-01T14:25:46.807Z,30.52
2023-05-01T14:28:49.700Z,30.45
2023-05-01T14:31:52.735Z,28.68
2023-05-01T14:34:55.216Z,28.92
2023-05-01T14:38:09.019Z,29.37
2023-05-01T14:41:12.565Z,27.69
2023-05-01T14:44:28.546Z,28.02
2023-05-01T14:47:31.066Z,28.56
2023-05-01T14:50:33.418Z,30.32
2023-05-01T14:53:35.685Z,29.91
2023-05-01T14:56:38.011Z,30.04
2023-05-01T14:59:41.001Z,30.67
2023-05-01T15:02:43.726Z,29.34
2023-05-01T15:05:46.266Z,29.36
2023-05-01T15:08:48.664Z,31.41
2023-05-01T15:11:51.101Z,30.24
2023-05-01T15:14:53.422Z,31.01
2023-05-01T15:17:55.749Z,28.59
2023-05-01T15:20:58.105Z,29.38
2023-05-01T15:24:00.576Z,28.28
2023-05-01T15:27:03.205Z,29.94
2023-05-01T15:30:06.355Z,30.25
2023-05-01T15:33:08.653Z,30.53
2023-05-01T15:36:11.272Z,31.13
2023-05-01T15:39:13.542Z,30.10
2023-05-01T15:42:15.875Z,31.74
2023-05-01T15:45:18.371Z,31.73
2023-05-01T15:48:20.692Z,32.37
2023-05-01T15:51:23.121Z,32.27
2023-05-01T15:54:25.446Z,33.98
2023-05-01T15:57:27.778Z,33.47
2023-05-01T16:00:39.227Z,32.54
2023-05-01T16:03:45.048Z,34.72
2023-05-01T16:06:47.569Z,32.68
2023-05-01T16:09:50.125Z,34.18
2023-05-01T16:12:55.635Z,33.25
2023-05-01T16:15:58.011Z,33.35
2023-05-01T16:19:00.581Z,32.57
2023-05-01T16:22:04.529Z,30.87
2023-05-01T16:25:10.884Z,34.75
2023-05-01T16:28:14.497Z,36.56
2023-05-01T16:31:27.062Z,36.85
2023-05-01T16:34:30.122Z,35.03
2023-05-01T16:37:34.185Z,36.04
2023-05-01T16:40:37.916Z,34.14
2023-05-01T16:43:40.251Z,35.51
2023-05-01T16:46:49.365Z,34.57
2023-05-01T16:50:00.877Z,34.62
2023-05-01T16:53:03.616Z,34.58
2023-05-01T16:56:09.107Z,34.98
2023-05-01T16:59:11.326Z,33.54
2023-05-01T17:02:13.829Z,37.80
2023-05-01T17:05:16.393Z,33.76
2023-05-01T17:08:19.140Z,33.86
2023-05-01T17:11:22.671Z,35.22
2023-05-01T17:14:25.240Z,36.93
2023-05-01T17:17:28.110Z,38.07
2023-05-01T17:20:30.470Z,36.37
2023-05-01T17:23:32.905Z,37.36
2023-05-01T17:26:35.188Z,37.85
2023-05-01T17:29:37.484Z,35.93
2023-05-01T17:32:39.837Z,35.88
2023-05-01T17:35:42.315Z,38.09
2023-05-01T17:38:45.071Z,37.88
2023-05-01T17:41:49.488Z,37.24
2023-05-01T17:44:51.764Z,39.66
2023-05-01T17:47:54.305Z,39.38
2023-05-01T17:50:57.782Z,38.53
2023-05-01T17:54:01.608Z,38.73
2023-05-01T17:57:04.984Z,38.17
2023-05-01T18:00:08.909Z,38.51
2023-05-01T18:03:17.516Z,38.14
2023-05-01T18:06:20.365Z,37.86
2023-05-01T18:09:22.807Z,38.93
2023-05-01T18:12:28.521Z,39.14
2023-05-01T18:15:32.637Z,39.10
2023-05-01T18:18:34.951Z,38.32
2023-05-01T18:21:37.274Z,41.13
2023-05-01T18:24:41.442Z,45.38
2023-05-01T18:27:45.163Z,43.74
2023-05-01T18:30:47.491Z,42.03
2023-05-01T18:33:53.496Z,41.39
2023-05-01T18:36:56.773Z,44.35
2023-05-01T18:40:00.310Z,45.55
2023-05-01T18:43:03.226Z,45.40
2023-05-01T18:46:06.092Z,46.38
2023-05-01T18:49:08.999Z,46.40
2023-05-01T18:52:11.687Z,45.84
2023-05-01T18:55:14.609Z,46.32
2023-05-01T18:58:17.079Z,46.96
2023-05-01T19:01:20.907Z,45.43
2023-05-01T19:04:23.725Z,45.09
2023-05-01T19:07:26.558Z,44.16
2023-05-01T19:10:37.147Z,44.55
2023-05-01T19:13:42.254Z,43.95
2023-05-01T19:16:45.115Z,43.47
2023-05-01T19:19:48.510Z,46.53
2023-05-01T19:22:50.840Z,46.74
2023-05-01T19:25:53.168Z,48.68
2023-05-01T19:28:55.527Z,48.14
2023-05-01T19:32:00.212Z,48.14
2023-05-01T19:35:02.662Z,51.47
2023-05-01T19:38:06.002Z,50.65
2023-05-01T19:41:08.865Z,52.21
2023-05-01T19:44:14.725Z,54.46
2023-05-01T19:47:21.462Z,52.81
2023-05-01T19:50:24.556Z,50.38
2023-05-01T19:53:38.272Z,48.72
2023-05-01T19:56:52.241Z,48.54
2023-05-01T19:59:59.317Z,48.28
2023-05-01T20:03:01.845Z,48.07
2023-05-01T20:06:06.603Z,47.66
2023-05-01T20:09:09.230Z,48.08
2023-05-01T20:12:12.045Z,48.42
2023-05-01T20:15:14.529Z,48.32
2023-05-01T20:18:17.116Z,51.56
2023-05-01T20:21:24.857Z,50.15
2023-05-01T20:24:27.188Z,48.40
2023-05-01T20:27:29.480Z,48.47
2023-05-01T20:30:33.160Z,48.86
2023-05-01T20:33:35.800Z,48.01
2023-05-01T20:36:38.648Z,47.31
2023-05-01T20:39:42.353Z,51.99
2023-05-01T20:42:44.781Z,48.13
2023-05-01T20:45:47.353Z,48.23
2023-05-01T20:48:54.542Z,53.28
2023-05-01T20:51:58.867Z,55.03
2023-05-01T20:55:03.893Z,49.11
2023-05-01T20:58:10.431Z,48.03
2023-05-01T21:01:13.458Z,50.12
2023-05-01T21:04:16.779Z,50.64
2023-05-01T21:07:19.588Z,47.95
2023-05-01T21:10:22.390Z,47.14
2023-05-01T21:13:27.133Z,46.96
2023-05-01T21:16:33.507Z,47.89
2023-05-01T21:19:45.170Z,48.29
2023-05-01T21:22:51.647Z,56.01
2023-05-01T21:25:54.626Z,47.95
2023-05-01T21:28:58.890Z,48.70
2023-05-01T21:32:04.999Z,53.93
2023-05-01T21:35:16.687Z,50.26
2023-05-01T21:38:21.113Z,52.86
2023-05-01T21:41:23.612Z,53.64
2023-05-01T21:44:31.007Z,58.21
2023-05-01T21:47:39.194Z,58.40
2023-05-01T21:50:42.286Z,55.39
2023-05-01T21:53:44.969Z,50.71
2023-05-01T21:56:48.615Z,50.19
2023-05-01T21:59:51.296Z,49.45
2023-05-01T22:02:53.990Z,49.32
2023-05-01T22:05:56.323Z,48.93
2023-05-01T22:08:58.623Z,49.58
2023-05-01T22:12:05.231Z,49.38
2023-05-01T22:15:10.861Z,49.64
2023-05-01T22:18:17.719Z,55.14
2023-05-01T22:21:20.182Z,58.21
2023-05-01T22:24:22.489Z,58.56
2023-05-01T22:27:24.824Z,59.06
2023-05-01T22:30:27.561Z,55.39
2023-05-01T22:33:29.808Z,54.61
2023-05-01T22:36:32.199Z,56.43
2023-05-01T22:39:36.246Z,56.65
2023-05-01T22:42:38.588Z,57.67
2023-05-01T22:45:40.917Z,60.39
2023-05-01T22:48:43.201Z,59.73
2023-05-01T22:51:45.622Z,61.58
2023-05-01T22:54:47.891Z,61.22
2023-05-01T22:57:50.322Z,60.51
2023-05-01T23:00:52.572Z,62.44
2023-05-01T23:03:55.553Z,57.48
2023-05-01T23:06:58.543Z,60.06
2023-05-01T23:10:01.326Z,58.09
2023-05-01T23:13:04.958Z,59.37
2023-05-01T23:16:07.946Z,60.74
2023-05-01T23:19:21.441Z,60.84
2023-05-01T23:22:23.964Z,62.99
2023-05-01T23:25:26.860Z,61.45
2023-05-01T23:28:29.354Z,61.69
2023-05-01T23:31:31.767Z,62.10
2023-05-01T23:34:34.059Z,60.26
2023-05-01T23:37:36.368Z,58.88
2023-05-01T23:40:38.612Z,61.47
2023-05-01T23:43:41.284Z,63.76
2023-05-01T23:46:43.723Z,61.20
2023-05-01T23:49:46.804Z,55.98
2023-05-01T23:52:49.105Z,56.93
2023-05-01T23:55:51.455Z,58.90
2023-05-01T23:58:53.738Z,58.18
